Time;durP1;ratioP1;P1;durP2;ratioP2;P2;SDS_P1;SDS_P2;PMS_P1;PMS_P2;Temp;Humidity;BMP_temperature;BMP_pressure;BME280_temperature;BME280_humidity;BME280_pressure;Samples;Min_cycle;Max_cycle;Signal;HPM_P1;HPM_P2
2022/09/07 00:01:21;;;;;;;6.30;3.30;;;;;;;13.71;47.17;101696.55;108008;1250;71280;-72
2022/09/07 00:03:55;;;;;;;5.30;2.80;;;;;;;13.61;47.39;101692.53;108177;1250;71844;-75
2022/09/07 00:06:24;;;;;;;5.30;2.70;;;;;;;13.54;47.69;101695.29;107424;1250;60315;-76
2022/09/07 00:08:52;;;;;;;6.40;3.00;;;;;;;13.50;47.41;101695.42;107263;1250;60098;-75
2022/09/07 00:11:21;;;;;;;5.10;3.10;;;;;;;13.44;47.50;101696.89;107265;1250;72520;-74
2022/09/07 00:13:50;;;;;;;5.20;2.90;;;;;;;13.40;47.47;101691.89;107143;1250;69570;-73
2022/09/07 00:16:23;;;;;;;5.30;2.90;;;;;;;13.33;47.56;101684.00;107390;1250;68947;-75
2022/09/07 00:18:55;;;;;;;6.40;2.90;;;;;;;13.28;47.51;101682.42;107305;1251;72355;-75
2022/09/07 00:21:25;;;;;;;6.00;2.90;;;;;;;13.23;47.28;101676.29;107433;1250;60209;-76
2022/09/07 00:23:55;;;;;;;5.60;2.80;;;;;;;13.22;47.18;101681.91;107544;1250;61289;-75
2022/09/07 00:26:27;;;;;;;6.50;3.40;;;;;;;13.28;46.79;101680.14;107335;1250;74470;-75
2022/09/07 00:28:59;;;;;;;4.00;2.80;;;;;;;13.33;46.79;101679.98;107320;1251;71093;-74
2022/09/07 00:31:30;;;;;;;6.20;3.00;;;;;;;13.28;47.13;101679.78;107358;1250;69985;-76
2022/09/07 00:34:01;;;;;;;7.80;3.00;;;;;;;13.25;46.71;101673.35;107328;1249;74267;-78
2022/09/07 00:36:30;;;;;;;4.10;2.50;;;;;;;13.26;46.50;101675.91;107948;1244;59801;-77
2022/09/07 00:38:59;;;;;;;4.40;2.40;;;;;;;13.23;46.78;101677.64;107723;1244;60571;-75
2022/09/07 00:41:27;;;;;;;4.90;2.60;;;;;;;13.24;46.59;101673.90;107858;1244;72156;-72
2022/09/07 00:44:36;;;;;;;7.40;2.70;;;;;;;13.23;46.75;101674.02;107706;1244;70235;-74
2022/09/07 00:47:18;;;;;;;3.50;2.40;;;;;;;13.17;47.19;101671.08;107654;1244;71499;-74
2022/09/07 00:49:56;;;;;;;6.60;3.10;;;;;;;13.09;47.19;101670.38;107544;1245;74320;-73
2022/09/07 00:52:28;;;;;;;4.40;2.40;;;;;;;13.07;47.13;101668.23;107601;1244;59681;-73
2022/09/07 00:55:02;;;;;;;7.00;2.70;;;;;;;13.04;47.16;101669.52;106092;1244;1950650;-74
2022/09/07 00:57:32;;;;;;;5.80;2.90;;;;;;;13.01;47.41;101669.36;107761;1244;73332;-74
2022/09/07 01:00:04;;;;;;;9.30;3.00;;;;;;;12.97;47.55;101667.66;107523;1246;69568;-77
2022/09/07 01:02:32;;;;;;;7.90;3.10;;;;;;;12.97;47.37;101669.08;107882;1244;68854;-72
2022/09/07 01:05:15;;;;;;;6.00;2.60;;;;;;;13.00;47.39;101667.16;107788;1244;72046;-73
2022/09/07 01:07:44;;;;;;;5.20;2.60;;;;;;;12.98;47.41;101666.17;107547;1244;61378;-73
2022/09/07 01:10:14;;;;;;;5.80;3.10;;;;;;;13.00;47.07;101670.13;107496;1247;60240;-73
2022/09/07 01:12:42;;;;;;;7.60;2.60;;;;;;;12.95;47.64;101667.79;107723;1244;73630;-74
2022/09/07 01:15:11;;;;;;;5.80;2.80;;;;;;;12.96;47.50;101666.88;107780;1244;70730;-72
2022/09/07 01:17:46;;;;;;;7.10;3.00;;;;;;;12.98;47.60;101663.28;107760;1243;68696;-72
2022/09/07 01:20:35;;;;;;;8.60;2.80;;;;;;;12.92;47.55;101658.56;108083;1244;73900;-73
2022/09/07 01:24:21;;;;;;;5.70;2.80;;;;;;;12.84;47.69;101657.75;107653;1244;61431;-74
2022/09/07 01:27:07;;;;;;;5.60;2.50;;;;;;;12.77;47.93;101658.22;107108;1252;59909;-74
2022/09/07 01:30:08;;;;;;;4.80;2.50;;;;;;;12.75;48.03;101656.73;107772;1244;70715;-75
2022/09/07 01:33:08;;;;;;;4.30;2.40;;;;;;;12.74;47.98;101659.45;107497;1244;72748;-71
2022/09/07 01:35:46;;;;;;;4.90;2.40;;;;;;;12.67;48.21;101657.42;107576;1244;70163;-73
2022/09/07 01:38:34;;;;;;;4.70;2.50;;;;;;;12.60;48.51;101651.45;107535;1244;73913;-72
2022/09/07 01:41:43;;;;;;;5.20;2.80;;;;;;;12.49;48.78;101653.04;107863;1244;60783;-74
2022/09/07 01:44:31;;;;;;;5.80;2.40;;;;;;;12.39;49.31;101651.77;107673;1246;59973;-75
2022/09/07 01:47:41;;;;;;;6.90;3.10;;;;;;;12.34;49.72;101656.31;107882;1244;73642;-73
2022/09/07 01:50:27;;;;;;;6.10;2.70;;;;;;;12.25;49.70;101657.80;107862;1244;72924;-73
2022/09/07 01:53:14;;;;;;;4.90;2.70;;;;;;;12.15;49.71;101659.77;107851;1244;69874;-73
2022/09/07 01:55:55;;;;;;;5.00;2.60;;;;;;;12.07;49.99;101661.38;107646;1245;73616;-71
2022/09/07 01:58:24;;;;;;;4.70;2.80;;;;;;;12.00;50.31;101661.83;107849;1244;59596;-73
2022/09/07 02:01:10;;;;;;;4.50;2.50;;;;;;;11.94;50.24;101660.23;107790;1244;59888;-72
2022/09/07 02:03:51;;;;;;;7.40;2.80;;;;;;;11.92;50.85;101658.43;107878;1244;74999;-73
2022/09/07 02:06:45;;;;;;;5.00;2.70;;;;;;;11.86;50.75;101660.37;107873;1244;71084;-75
2022/09/07 02:09:36;;;;;;;5.00;2.70;;;;;;;11.85;50.83;101656.83;107868;1244;69776;-76
2022/09/07 02:12:20;;;;;;;6.10;2.70;;;;;;;11.81;51.11;101650.94;107555;1247;73540;-74
2022/09/07 02:14:58;;;;;;;5.60;2.90;;;;;;;11.81;50.86;101646.73;107953;1244;59577;-71
2022/09/07 02:17:38;;;;;;;5.00;2.80;;;;;;;11.79;51.36;101646.52;107896;1244;60110;-76
2022/09/07 02:20:30;;;;;;;7.30;2.90;;;;;;;11.74;51.83;101644.08;107638;1245;75851;-73
2022/09/07 02:23:05;;;;;;;9.00;2.90;;;;;;;11.73;51.88;101643.23;107960;1244;69940;-73
2022/09/07 02:25:44;;;;;;;7.80;3.30;;;;;;;11.77;51.60;101637.22;107822;1244;68695;-74
2022/09/07 02:28:20;;;;;;;8.80;2.70;;;;;;;11.79;51.42;101639.34;107914;1244;71967;-73
2022/09/07 02:30:48;;;;;;;7.50;2.40;;;;;;;11.81;51.26;101636.98;107795;1244;61235;-74
2022/09/07 02:33:18;;;;;;;7.30;3.00;;;;;;;11.79;51.23;101638.27;107909;1244;61093;-73
2022/09/07 02:35:47;;;;;;;6.00;2.70;;;;;;;11.77;51.44;101637.02;107642;1244;75058;-75
2022/09/07 02:38:16;;;;;;;5.70;2.70;;;;;;;11.76;51.40;101630.10;107852;1244;71999;-74
2022/09/07 02:40:58;;;;;;;5.20;2.70;;;;;;;11.73;51.52;101635.50;107872;1244;67805;-74
2022/09/07 02:43:30;;;;;;;7.90;3.10;;;;;;;11.77;51.41;101635.25;107888;1244;71958;-74
2022/09/07 02:46:32;;;;;;;5.50;2.80;;;;;;;11.74;51.73;101638.11;107906;1244;61610;-75
2022/09/07 02:49:22;;;;;;;7.40;2.70;;;;;;;11.66;52.21;101635.27;107523;1246;60887;-75
2022/09/07 02:52:18;;;;;;;6.30;3.00;;;;;;;11.60;51.83;101635.80;107937;1244;73088;-76
2022/09/07 02:55:20;;;;;;;5.00;2.70;;;;;;;11.57;52.50;101629.16;107945;1244;70541;-75
2022/09/07 02:58:59;;;;;;;4.90;2.60;;;;;;;11.50;52.78;101630.87;107987;1244;68719;-77
2022/09/07 03:01:58;;;;;;;5.70;2.70;;;;;;;11.45;52.37;101634.81;107289;1247;71278;-74
2022/09/07 03:04:46;;;;;;;5.10;2.90;;;;;;;11.44;52.58;101637.67;107814;1247;59564;-76
2022/09/07 03:07:33;;;;;;;6.30;3.20;;;;;;;11.36;53.68;101636.59;108267;1246;60513;-74
2022/09/07 03:10:08;;;;;;;6.30;2.60;;;;;;;11.28;53.51;101630.98;108280;1245;73952;-76
2022/09/07 03:12:47;;;;;;;7.40;3.00;;;;;;;11.24;54.68;101634.22;107910;1244;71460;-73
2022/09/07 03:15:20;;;;;;;6.10;3.20;;;;;;;11.17;55.89;101634.80;107919;1244;68588;-74
2022/09/07 03:17:50;;;;;;;7.30;3.10;;;;;;;11.05;56.86;101629.91;108057;1247;73494;-73
2022/09/07 03:20:22;;;;;;;5.60;3.10;;;;;;;10.95;57.18;101630.20;108628;1244;60703;-74
2022/09/07 03:22:51;;;;;;;8.00;3.00;;;;;;;10.84;58.21;101626.43;108420;1245;60358;-78
2022/09/07 03:25:21;;;;;;;6.10;3.50;;;;;;;10.78;58.20;101629.41;107894;1244;72599;-74
2022/09/07 03:27:50;;;;;;;14.70;7.50;;;;;;;10.73;58.50;101629.36;107833;1244;70312;-78
2022/09/07 03:30:19;;;;;;;11.10;5.70;;;;;;;10.68;58.29;101634.74;107690;1244;68742;-76
2022/09/07 03:32:48;;;;;;;8.00;3.20;;;;;;;10.60;58.84;101635.51;107879;1244;71908;-78
2022/09/07 03:35:17;;;;;;;6.20;3.10;;;;;;;10.54;59.65;101632.42;107756;1247;60549;-76
2022/09/07 03:37:46;;;;;;;7.00;3.20;;;;;;;10.46;59.99;101635.46;107817;1246;58560;-72
2022/09/07 03:40:15;;;;;;;8.90;3.20;;;;;;;10.40;60.01;101629.76;107834;1244;73392;-75
2022/09/07 03:42:51;;;;;;;8.60;3.20;;;;;;;10.37;59.92;101633.02;107886;1244;70117;-69
2022/09/07 03:45:19;;;;;;;7.10;2.70;;;;;;;10.32;60.12;101633.48;107652;1244;70634;-69
2022/09/07 03:47:49;;;;;;;20.50;9.60;;;;;;;10.28;60.59;101631.05;107670;1244;73183;-75
2022/09/07 03:50:18;;;;;;;13.30;3.60;;;;;;;10.26;60.19;101630.70;107811;1244;61250;-75
2022/09/07 03:52:47;;;;;;;7.80;3.50;;;;;;;10.26;60.20;101629.11;107787;1244;60612;-77
2022/09/07 03:55:16;;;;;;;7.30;3.80;;;;;;;10.28;59.96;101626.73;107621;1244;73784;-78
2022/09/07 03:57:45;;;;;;;5.70;3.00;;;;;;;10.31;60.22;101634.40;107725;1244;72794;-76
2022/09/07 04:00:13;;;;;;;6.60;3.40;;;;;;;10.33;59.39;101636.04;107930;1244;69558;-77
2022/09/07 04:02:42;;;;;;;7.60;3.30;;;;;;;10.38;59.23;101635.75;107787;1244;72471;-75
2022/09/07 04:05:11;;;;;;;8.20;4.00;;;;;;;10.40;58.80;101638.29;107565;1245;60608;-86
2022/09/07 04:07:40;;;;;;;8.40;4.30;;;;;;;10.42;60.05;101638.28;107749;1244;59734;-73
2022/09/07 04:10:09;;;;;;;16.60;4.70;;;;;;;10.46;60.13;101637.41;107682;1244;72107;-73
2022/09/07 04:12:38;;;;;;;16.70;5.00;;;;;;;10.48;60.19;101641.48;107583;1244;70421;-88
2022/09/07 04:15:07;;;;;;;10.20;4.20;;;;;;;10.51;60.13;101637.83;107889;1244;69258;-76
2022/09/07 04:17:37;;;;;;;18.30;4.10;;;;;;;10.53;59.90;101633.49;107627;1244;73192;-75
2022/09/07 04:20:07;;;;;;;10.60;3.90;;;;;;;10.57;60.11;101630.64;107935;1243;60115;-75
2022/09/07 04:22:36;;;;;;;10.20;3.60;;;;;;;10.67;59.86;101633.05;108022;1244;60747;-81
2022/09/07 04:25:05;;;;;;;9.20;3.50;;;;;;;10.71;58.86;101633.52;108041;1244;73638;-73
2022/09/07 04:27:33;;;;;;;8.60;3.10;;;;;;;10.80;58.44;101634.56;108084;1244;72129;-73
2022/09/07 04:30:02;;;;;;;7.20;3.20;;;;;;;10.84;57.85;101632.21;108022;1243;68763;-76
2022/09/07 04:32:31;;;;;;;10.30;3.00;;;;;;;10.87;57.15;101632.39;108072;1244;71959;-77
2022/09/07 04:35:00;;;;;;;10.40;3.20;;;;;;;10.96;56.00;101634.33;108231;1243;60464;-76
2022/09/07 04:37:29;;;;;;;6.10;2.80;;;;;;;11.00;55.82;101629.01;108119;1244;61987;-76
2022/09/07 04:39:57;;;;;;;7.50;3.00;;;;;;;11.16;55.34;101637.43;107960;1244;75111;-76
2022/09/07 04:42:26;;;;;;;11.40;3.20;;;;;;;11.30;54.78;101632.62;108038;1244;71419;-74
2022/09/07 04:44:55;;;;;;;6.80;2.30;;;;;;;11.37;54.42;101630.58;108056;1243;68715;-76
2022/09/07 04:47:24;;;;;;;9.30;3.40;;;;;;;11.56;53.35;101627.13;107922;1245;72021;-73
2022/09/07 04:49:53;;;;;;;6.60;3.10;;;;;;;11.73;53.10;101630.66;108068;1243;59816;-78
2022/09/07 04:52:24;;;;;;;9.70;3.40;;;;;;;11.76;52.81;101632.73;107939;1246;59660;-76
2022/09/07 04:54:53;;;;;;;9.60;3.40;;;;;;;11.86;52.27;101630.04;107962;1244;72644;-77
2022/09/07 04:57:24;;;;;;;11.40;4.00;;;;;;;12.07;51.62;101631.88;108269;1244;72243;-76
2022/09/07 04:59:53;;;;;;;8.70;3.80;;;;;;;12.13;51.85;101635.63;108071;1244;69110;-77
2022/09/07 05:02:22;;;;;;;10.90;3.50;;;;;;;12.29;51.40;101632.01;107932;1244;72035;-77
2022/09/07 05:04:51;;;;;;;7.00;3.10;;;;;;;12.37;50.97;101632.50;107969;1244;59748;-76
2022/09/07 05:07:20;;;;;;;7.60;2.80;;;;;;;12.43;50.40;101627.57;107917;1244;59745;-65
2022/09/07 05:09:49;;;;;;;7.30;2.50;;;;;;;12.46;50.52;101626.11;108047;1244;73692;-83
2022/09/07 05:12:17;;;;;;;4.70;2.60;;;;;;;12.53;51.00;101626.59;108036;1244;72162;-84
2022/09/07 05:14:46;;;;;;;5.40;2.90;;;;;;;12.59;51.05;101622.83;107904;1247;68469;-82
2022/09/07 05:17:15;;;;;;;4.80;2.70;;;;;;;12.68;50.34;101621.00;107977;1244;73864;-82
2022/09/07 05:19:44;;;;;;;7.10;3.10;;;;;;;12.79;49.97;101617.69;107734;1244;62149;-89
2022/09/07 05:22:13;;;;;;;5.90;3.00;;;;;;;12.90;49.59;101617.09;107918;1244;60505;-87
2022/09/07 05:24:41;;;;;;;9.80;3.10;;;;;;;13.00;49.64;101614.88;107787;1247;74712;-84
2022/09/07 05:27:10;;;;;;;6.40;2.90;;;;;;;13.10;49.28;101616.97;107906;1247;70406;-87
2022/09/07 05:29:39;;;;;;;8.90;3.20;;;;;;;13.20;49.42;101616.64;107799;1244;68319;-82
2022/09/07 05:32:28;;;;;;;8.80;3.40;;;;;;;13.35;49.42;101618.63;108120;1244;74263;-83
2022/09/07 05:34:56;;;;;;;7.20;3.00;;;;;;;13.46;48.31;101618.67;107792;1244;60940;-85
2022/09/07 05:37:25;;;;;;;8.60;3.00;;;;;;;13.57;48.01;101623.50;107678;1246;59689;-84
2022/09/07 05:39:55;;;;;;;12.30;3.80;;;;;;;13.67;48.02;101623.89;107945;1247;73017;-84
2022/09/07 05:42:24;;;;;;;10.20;3.80;;;;;;;13.78;47.98;101627.95;107865;1247;70640;-84
2022/09/07 05:44:53;;;;;;;10.10;3.50;;;;;;;13.92;47.17;101626.46;107996;1247;68702;-81
2022/09/07 05:47:23;;;;;;;6.60;2.70;;;;;;;14.05;47.24;101626.20;107949;1247;71164;-82
2022/09/07 05:49:53;;;;;;;6.20;2.90;;;;;;;14.12;46.49;101622.89;107858;1245;60485;-85
2022/09/07 05:52:24;;;;;;;6.50;2.70;;;;;;;14.22;46.06;101617.06;107971;1247;60241;-84
2022/09/07 05:54:54;;;;;;;6.30;3.10;;;;;;;14.37;46.12;101620.34;108604;1246;71762;-81
2022/09/07 05:57:43;;;;;;;9.80;3.00;;;;;;;14.54;46.24;101616.89;108798;1246;72196;-82
2022/09/07 06:00:13;;;;;;;7.50;2.80;;;;;;;14.63;45.82;101617.42;108562;1246;69109;-79
2022/09/07 06:02:42;;;;;;;9.20;3.10;;;;;;;14.64;46.20;101621.75;107876;1246;73328;-82
2022/09/07 06:05:11;;;;;;;5.90;2.50;;;;;;;14.64;46.13;101619.28;107880;1246;60915;-81
2022/09/07 06:07:39;;;;;;;9.90;3.20;;;;;;;14.63;46.14;101618.95;107791;1247;59893;-79
2022/09/07 06:10:08;;;;;;;8.00;2.70;;;;;;;14.77;46.04;101620.77;107897;1246;73141;-79
2022/09/07 06:12:57;;;;;;;6.80;3.40;;;;;;;14.99;45.40;101621.67;107961;1247;71296;-81
2022/09/07 06:15:26;;;;;;;7.80;3.00;;;;;;;15.15;44.72;101621.69;108086;1245;67964;-82
2022/09/07 06:17:54;;;;;;;9.40;3.30;;;;;;;15.27;44.87;101625.29;107707;1248;73865;-81
2022/09/07 06:20:23;;;;;;;8.60;3.00;;;;;;;15.32;44.50;101617.20;107961;1245;60061;-82
2022/09/07 06:22:52;;;;;;;6.30;2.70;;;;;;;15.24;44.50;101616.95;107815;1246;58916;-86
2022/09/07 06:25:21;;;;;;;7.60;2.80;;;;;;;15.17;44.36;101614.32;108006;1244;73775;-81
2022/09/07 06:27:50;;;;;;;10.10;3.00;;;;;;;15.20;44.62;101620.97;107790;1246;71632;-82
2022/09/07 06:30:20;;;;;;;10.50;3.70;;;;;;;15.20;44.61;101619.34;107881;1246;68589;-82
2022/09/07 06:32:49;;;;;;;5.50;2.60;;;;;;;15.24;45.05;101622.08;108040;1245;73090;-83
2022/09/07 06:35:17;;;;;;;5.40;2.50;;;;;;;15.33;44.97;101625.36;107987;1247;61464;-83
2022/09/07 06:37:46;;;;;;;7.30;2.50;;;;;;;15.48;44.75;101626.52;108125;1247;59404;-82
2022/09/07 06:40:15;;;;;;;7.80;2.80;;;;;;;15.72;44.65;101625.00;108675;1244;72256;-84
2022/09/07 06:42:44;;;;;;;6.50;2.90;;;;;;;15.93;43.98;101622.77;108263;1244;68843;-84
2022/09/07 06:45:15;;;;;;;6.50;2.50;;;;;;;16.17;43.49;101621.52;108190;1244;70567;-80
2022/09/07 06:47:44;;;;;;;9.40;2.80;;;;;;;16.38;43.18;101614.86;107972;1244;72501;-82
2022/09/07 06:50:14;;;;;;;6.60;3.10;;;;;;;16.53;43.07;101613.75;107873;1246;59730;-82
2022/09/07 06:52:43;;;;;;;8.00;3.20;;;;;;;16.76;42.97;101605.57;108001;1244;60041;-85
2022/09/07 06:55:32;;;;;;;5.20;2.70;;;;;;;16.94;42.82;101607.94;107818;1244;74513;-82
2022/09/07 06:58:00;;;;;;;7.90;3.40;;;;;;;17.01;42.33;101610.11;107866;1244;69913;-83
2022/09/07 07:00:29;;;;;;;7.60;3.00;;;;;;;17.09;42.22;101605.56;107731;1244;68751;-83
2022/09/07 07:02:58;;;;;;;5.10;2.90;;;;;;;17.16;42.66;101607.55;107863;1244;73863;-83
2022/09/07 07:05:27;;;;;;;5.50;2.80;;;;;;;17.30;42.57;101607.66;107788;1244;60859;-85
2022/09/07 07:07:56;;;;;;;7.90;3.60;;;;;;;17.20;42.33;101607.81;108062;1244;61581;-83
2022/09/07 07:10:25;;;;;;;8.40;2.90;;;;;;;17.29;42.42;101608.64;107921;1244;72180;-83
2022/09/07 07:12:57;;;;;;;7.50;3.30;;;;;;;17.33;42.63;101613.71;107869;1246;69963;-82
2022/09/07 07:15:29;;;;;;;7.30;3.10;;;;;;;17.41;42.31;101613.21;107893;1244;69701;-85
2022/09/07 07:17:58;;;;;;;6.50;2.90;;;;;;;17.57;42.79;101611.77;107622;1244;73629;-82
2022/09/07 07:20:47;;;;;;;6.50;3.00;;;;;;;17.68;42.41;101611.66;107649;1247;61213;-80
2022/09/07 07:23:16;;;;;;;4.00;2.60;;;;;;;17.69;42.62;101615.51;107608;1246;61688;-82
2022/09/07 07:25:44;;;;;;;9.30;2.80;;;;;;;17.74;42.64;101618.80;108028;1246;74494;-78
2022/09/07 07:28:13;;;;;;;7.00;3.00;;;;;;;17.71;43.01;101619.05;107825;1246;70331;-86
2022/09/07 07:31:04;;;;;;;5.80;2.70;;;;;;;17.86;43.02;101616.96;108096;1244;60010;-82
2022/09/07 07:33:40;;;;;;;9.60;3.40;;;;;;;17.92;42.95;101619.45;107657;1247;63181;-87
2022/09/07 07:36:22;;;;;;;9.30;3.10;;;;;;;18.05;42.91;101611.92;107713;1244;59595;-82
2022/09/07 07:38:54;;;;;;;6.90;3.10;;;;;;;18.21;42.69;101607.30;107669;1247;58987;-80
2022/09/07 07:41:30;;;;;;;7.30;3.10;;;;;;;18.42;42.57;101601.91;107992;1244;63349;-82
2022/09/07 07:44:19;;;;;;;8.00;3.10;;;;;;;18.60;42.50;101605.16;108012;1247;72220;-81
2022/09/07 07:46:50;;;;;;;8.60;2.90;;;;;;;18.57;42.63;101602.80;107817;1247;60434;-83
2022/09/07 07:49:19;;;;;;;5.30;3.10;;;;;;;18.69;43.45;101601.52;107882;1244;73965;-82
2022/09/07 07:51:48;;;;;;;5.80;2.50;;;;;;;18.78;43.63;101599.66;107997;1244;60884;-79
2022/09/07 07:54:36;;;;;;;10.40;3.10;;;;;;;18.92;43.56;101592.69;107724;1247;59462;-84
2022/09/07 07:57:05;;;;;;;14.20;2.90;;;;;;;19.03;44.01;101597.85;107914;1246;63015;-81
2022/09/07 07:59:34;;;;;;;7.30;2.60;;;;;;;19.07;44.33;101596.02;108033;1244;72390;-83
2022/09/07 08:02:05;;;;;;;6.10;2.80;;;;;;;19.08;44.36;101594.48;107877;1247;61412;-82
2022/09/07 08:04:35;;;;;;;7.20;2.90;;;;;;;19.17;44.47;101593.55;107818;1246;63926;-84
2022/09/07 08:07:04;;;;;;;7.70;3.10;;;;;;;19.52;43.96;101594.55;107815;1246;59590;-83
2022/09/07 08:09:42;;;;;;;8.50;3.20;;;;;;;19.65;43.89;101588.45;107950;1244;59020;-82
2022/09/07 08:12:17;;;;;;;9.00;3.20;;;;;;;19.67;44.01;101583.77;108023;1244;63856;-89
2022/09/07 08:14:47;;;;;;;5.20;2.50;;;;;;;19.53;44.00;101586.04;107937;1247;60743;-84
2022/09/07 08:17:16;;;;;;;7.10;2.90;;;;;;;19.75;43.77;101587.80;107863;1245;59623;-83
2022/09/07 08:19:45;;;;;;;6.60;2.80;;;;;;;19.71;43.70;101592.29;107967;1244;62951;-84
2022/09/07 08:22:14;;;;;;;7.20;3.20;;;;;;;19.69;43.86;101598.09;107740;1247;59639;-81
2022/09/07 08:24:43;;;;;;;6.00;3.20;;;;;;;19.96;43.32;101592.77;107787;1244;60756;-82
2022/09/07 08:27:12;;;;;;;7.10;3.20;;;;;;;20.34;43.24;101590.80;107760;1244;74121;-79
2022/09/07 08:29:41;;;;;;;6.10;2.90;;;;;;;20.39;42.50;101590.84;107926;1244;71625;-81
2022/09/07 08:32:10;;;;;;;6.10;3.10;;;;;;;20.09;42.95;101596.10;108013;1244;59685;-84
2022/09/07 08:34:39;;;;;;;5.90;2.70;;;;;;;20.21;43.00;101592.09;107751;1247;62576;-84
2022/09/07 08:37:08;;;;;;;6.00;3.10;;;;;;;20.41;42.77;101586.95;107828;1247;59718;-83
2022/09/07 08:39:37;;;;;;;7.90;3.00;;;;;;;20.19;42.78;101583.06;107991;1244;59437;-81
2022/09/07 08:42:06;;;;;;;5.90;3.30;;;;;;;20.44;42.49;101577.74;107794;1247;64982;-82
2022/09/07 08:44:50;;;;;;;5.80;3.00;;;;;;;20.57;42.36;101573.13;108013;1244;70326;-84
2022/09/07 08:47:40;;;;;;;4.10;2.90;;;;;;;20.08;42.94;101565.98;107753;1244;70438;-84
2022/09/07 08:50:51;;;;;;;4.80;2.80;;;;;;;19.98;43.39;101554.39;107706;1247;73624;-85
2022/09/07 08:53:23;;;;;;;6.30;3.00;;;;;;;19.95;43.44;101557.88;107745;1246;61308;-81
2022/09/07 08:56:08;;;;;;;;;;;;;;;19.99;43.61;101553.94;107895;1247;59546;-86
2022/09/07 08:58:52;;;;;;;5.90;2.80;;;;;;;20.02;43.49;101543.36;107822;1247;63631;-83
2022/09/07 09:01:28;;;;;;;8.80;2.70;;;;;;;20.13;43.10;101538.91;107772;1245;71495;-84
2022/09/07 09:04:00;;;;;;;7.10;2.40;;;;;;;20.34;43.12;101538.45;107796;1247;72026;-83
2022/09/07 09:07:29;;;;;;;5.80;2.90;;;;;;;20.63;42.48;101536.69;109848;1244;62880;-85
2022/09/07 09:10:33;;;;;;;6.50;3.20;;;;;;;20.78;42.36;101536.62;108584;1246;58047;-85
2022/09/07 09:13:25;;;;;;;11.90;3.70;;;;;;;20.78;42.01;101529.36;107865;1245;60821;-85
2022/09/07 09:16:42;;;;;;;7.30;3.20;;;;;;;20.59;42.58;101529.55;107986;1245;64758;-85
2022/09/07 09:19:38;;;;;;;7.10;2.90;;;;;;;20.43;42.72;101533.67;107907;1247;63364;-86
2022/09/07 09:22:24;;;;;;;7.90;3.00;;;;;;;20.75;42.37;101528.09;109799;1244;70737;-82
2022/09/07 09:25:14;;;;;;;8.00;3.30;;;;;;;21.13;42.06;101522.23;109811;1244;63779;-84
2022/09/07 09:27:43;;;;;;;5.40;3.10;;;;;;;21.43;41.11;101521.17;108169;1247;59460;-84
2022/09/07 09:30:16;;;;;;;5.70;3.00;;;;;;;21.64;40.67;101520.15;107913;1244;59594;-88
2022/09/07 09:32:46;;;;;;;;;;;;;;;21.61;40.58;101520.02;107603;1247;75025;-85
2022/09/07 09:35:35;;;;;;;6.40;3.00;;;;;;;21.45;40.81;101517.75;107526;1248;61579;-86
2022/09/07 09:38:04;;;;;;;9.50;3.10;;;;;;;21.57;40.63;101517.05;107499;1244;70633;-84
2022/09/07 09:40:36;;;;;;;6.10;3.10;;;;;;;21.57;40.80;101512.80;107437;1247;63675;-87
2022/09/07 09:43:18;;;;;;;6.10;3.00;;;;;;;21.89;40.19;101509.01;107825;1244;59522;-84
2022/09/07 09:45:51;;;;;;;6.30;3.00;;;;;;;22.02;39.84;101510.63;107435;1247;59490;-83
2022/09/07 09:48:40;;;;;;;;;;;;;;;21.32;40.92;101511.58;107592;1247;64161;-84
2022/09/07 09:51:14;;;;;;;8.00;3.60;;;;;;;21.30;41.49;101508.85;107913;1247;61775;-82
2022/09/07 09:54:19;;;;;;;4.30;2.80;;;;;;;21.98;40.48;101506.25;108539;1244;59137;-81
2022/09/07 09:56:48;;;;;;;5.90;2.90;;;;;;;22.31;39.75;101501.81;108480;1244;62897;-85
2022/09/07 09:59:17;;;;;;;5.50;3.20;;;;;;;22.26;39.80;101493.23;108404;1244;60349;-85
2022/09/07 10:02:32;;;;;;;7.20;3.40;;;;;;;22.72;38.74;101493.63;108084;1244;61792;-84
2022/09/07 10:05:29;;;;;;;5.90;3.10;;;;;;;22.40;39.19;101488.84;107760;1247;75044;-84
2022/09/07 10:07:58;;;;;;;7.20;3.10;;;;;;;22.54;39.72;101487.02;107637;1247;72259;-84
2022/09/07 10:10:28;;;;;;;8.10;3.60;;;;;;;22.76;39.08;101491.76;107913;1244;71274;-84
2022/09/07 10:12:57;;;;;;;7.70;3.30;;;;;;;22.56;39.00;101491.00;107803;1245;73792;-80
2022/09/07 10:15:36;;;;;;;5.70;3.20;;;;;;;22.55;38.98;101490.60;107634;1247;59928;-81
2022/09/07 10:18:36;;;;;;;5.40;3.00;;;;;;;22.38;39.21;101491.45;107904;1244;59705;-83
2022/09/07 10:21:29;;;;;;;4.90;2.90;;;;;;;22.12;39.88;101495.13;107828;1245;64140;-84
2022/09/07 10:24:06;;;;;;;6.30;3.30;;;;;;;22.11;39.97;101488.64;107969;1244;71390;-83
2022/09/07 10:26:38;;;;;;;7.20;3.20;;;;;;;22.25;39.75;101488.94;107729;1247;60442;-85
2022/09/07 10:29:18;;;;;;;5.00;3.10;;;;;;;22.29;40.07;101489.54;107747;1245;73127;-82
2022/09/07 10:32:14;;;;;;;8.10;3.50;;;;;;;22.79;39.15;101481.94;107955;1245;61130;-85
2022/09/07 10:35:27;;;;;;;9.20;3.20;;;;;;;22.91;38.92;101481.99;108245;1247;58662;-84
2022/09/07 10:38:27;;;;;;;7.60;3.40;;;;;;;22.61;39.08;101477.72;109364;1245;74455;-82
2022/09/07 10:41:06;;;;;;;13.20;3.40;;;;;;;22.93;38.72;101480.62;109146;1245;69990;-87
2022/09/07 10:43:35;;;;;;;6.50;3.00;;;;;;;22.69;38.86;101477.00;108264;1244;69924;-84
2022/09/07 10:46:31;;;;;;;5.50;2.80;;;;;;;23.14;38.54;101474.42;108638;1244;63336;-84
2022/09/07 10:49:26;;;;;;;5.80;3.00;;;;;;;23.53;37.37;101472.16;107826;1245;62319;-85
2022/09/07 10:52:32;;;;;;;7.00;3.10;;;;;;;23.36;37.69;101468.91;108045;1244;62507;-84
2022/09/07 10:55:19;;;;;;;5.80;2.60;;;;;;;23.16;38.01;101471.52;107653;1247;62894;-86
2022/09/07 10:58:24;;;;;;;7.00;3.20;;;;;;;23.47;37.92;101465.45;107849;1246;70588;-84
2022/09/07 11:01:35;;;;;;;5.50;3.40;;;;;;;23.57;37.39;101457.23;107930;1247;60628;-87
2022/09/07 11:04:43;;;;;;;5.80;3.30;;;;;;;23.92;36.70;101454.39;107896;1244;73101;-82
2022/09/07 11:07:33;;;;;;;6.70;2.90;;;;;;;24.35;35.71;101453.75;107944;1243;60228;-83
2022/09/07 11:10:41;;;;;;;6.70;3.20;;;;;;;24.27;36.03;101450.71;107710;1244;61886;-83
2022/09/07 11:13:17;;;;;;;7.60;2.80;;;;;;;24.91;35.23;101446.44;107576;1247;63727;-85
2022/09/07 11:15:57;;;;;;;7.20;3.50;;;;;;;25.18;34.82;101442.67;107833;1246;61748;-85
2022/09/07 11:19:08;;;;;;;7.30;3.40;;;;;;;24.69;35.21;101440.21;107924;1244;59247;-84
2022/09/07 11:22:27;;;;;;;8.60;4.00;;;;;;;25.18;34.55;101432.05;107671;1247;62509;-83
2022/09/07 11:25:07;;;;;;;7.20;3.20;;;;;;;23.96;35.97;101431.27;107634;1244;60518;-82
2022/09/07 11:28:20;;;;;;;6.50;3.00;;;;;;;23.25;37.15;101430.63;107777;1245;60898;-80
2022/09/07 11:30:57;;;;;;;7.60;3.30;;;;;;;23.40;37.52;101425.87;107707;1247;75172;-85
2022/09/07 11:33:44;;;;;;;8.30;3.60;;;;;;;23.17;37.78;101418.79;107686;1247;71644;-81
2022/09/07 11:36:48;;;;;;;5.30;3.10;;;;;;;22.72;38.72;101420.16;107753;1247;60273;-85
2022/09/07 11:39:39;;;;;;;7.30;3.30;;;;;;;23.30;37.76;101427.41;107575;1245;63288;-86
2022/09/07 11:42:20;;;;;;;3.90;2.40;;;;;;;23.42;37.58;101426.99;107728;1246;57980;-85
2022/09/07 11:45:26;;;;;;;11.40;3.30;;;;;;;23.35;38.27;101429.90;107804;1244;61327;-86
2022/09/07 11:48:20;;;;;;;9.10;3.30;;;;;;;23.23;38.50;101426.31;107845;1244;75027;-86
2022/09/07 11:51:09;;;;;;;8.90;3.30;;;;;;;23.00;39.05;101421.61;107724;1244;72683;-88
2022/09/07 11:53:47;;;;;;;11.40;3.20;;;;;;;23.30;38.48;101419.73;107732;1244;69673;-86
2022/09/07 11:56:56;;;;;;;9.60;3.30;;;;;;;23.17;38.96;101415.29;107897;1245;73632;-85
2022/09/07 11:59:41;;;;;;;10.40;3.10;;;;;;;22.99;39.44;101409.77;107557;1246;61823;-87
2022/09/07 12:02:22;;;;;;;4.70;2.50;;;;;;;23.03;39.34;101408.89;107750;1247;59584;-89
2022/09/07 12:05:24;;;;;;;14.60;3.80;;;;;;;23.19;39.28;101402.23;107876;1244;74843;-83
2022/09/07 12:08:14;;;;;;;9.50;3.00;;;;;;;23.39;39.26;101399.42;107657;1247;63694;-86